sensor_id;sensor_type;location;lat;lon;timestamp;P1;durP1;ratioP1;P2;durP2;ratioP2
32810;SDS011;65470;47.324;8.548;2023-04-25T00:01:10;6.15;;;3.00;;
32810;SDS011;65470;47.324;8.548;2023-04-25T00:03:38;5.85;;;3.20;;
32810;SDS011;65470;47.324;8.548;2023-04-25T00:06:05;8.75;;;3.10;;
32810;SDS011;65470;47.324;8.548;2023-04-25T00:08:31;7.10;;;2.90;;
32810;SDS011;65470;47.324;8.548;2023-04-25T00:10:57;4.78;;;2.85;;
32810;SDS011;65470;47.324;8.548;2023-04-25T00:13:23;6.22;;;3.20;;
32810;SDS011;65470;47.324;8.548;2023-04-25T00:15:50;6.05;;;3.20;;
32810;SDS011;65470;47.324;8.548;2023-04-25T00:18:18;5.90;;;3.00;;
32810;SDS011;65470;47.324;8.548;2023-04-25T00:20:44;4.60;;;2.85;;
32810;SDS011;65470;47.324;8.548;2023-04-25T00:23:12;8.55;;;3.25;;
32810;SDS011;65470;47.324;8.548;2023-04-25T00:25:43;7.35;;;2.78;;
32810;SDS011;65470;47.324;8.548;2023-04-25T00:28:10;9.27;;;3.50;;
32810;SDS011;65470;47.324;8.548;2023-04-25T00:30:36;5.40;;;2.75;;
32810;SDS011;65470;47.324;8.548;2023-04-25T00:33:01;4.03;;;2.55;;
32810;SDS011;65470;47.324;8.548;2023-04-25T00:35:27;6.35;;;2.97;;
32810;SDS011;65470;47.324;8.548;2023-04-25T00:37:54;6.47;;;3.08;;
32810;SDS011;65470;47.324;8.548;2023-04-25T00:40:20;5.47;;;2.53;;
32810;SDS011;65470;47.324;8.548;2023-04-25T00:42:46;8.73;;;3.10;;
32810;SDS011;65470;47.324;8.548;2023-04-25T00:45:12;11.80;;;2.85;;
32810;SDS011;65470;47.324;8.548;2023-04-25T00:47:40;5.70;;;2.70;;
32810;SDS011;65470;47.324;8.548;2023-04-25T00:50:06;6.93;;;2.60;;
32810;SDS011;65470;47.324;8.548;2023-04-25T00:52:32;8.70;;;2.67;;
32810;SDS011;65470;47.324;8.548;2023-04-25T00:54:58;5.38;;;2.65;;
32810;SDS011;65470;47.324;8.548;2023-04-25T00:57:25;7.95;;;3.08;;
32810;SDS011;65470;47.324;8.548;2023-04-25T00:59:51;6.55;;;3.03;;
32810;SDS011;65470;47.324;8.548;2023-04-25T01:02:17;5.18;;;2.40;;
32810;SDS011;65470;47.324;8.548;2023-04-25T01:04:44;4.82;;;2.63;;
32810;SDS011;65470;47.324;8.548;2023-04-25T01:07:10;8.25;;;2.85;;
32810;SDS011;65470;47.324;8.548;2023-04-25T01:09:36;7.75;;;3.00;;
32810;SDS011;65470;47.324;8.548;2023-04-25T01:12:01;6.85;;;2.70;;
32810;SDS011;65470;47.324;8.548;2023-04-25T01:14:27;6.28;;;3.45;;
32810;SDS011;65470;47.324;8.548;2023-04-25T01:16:54;5.20;;;2.85;;
32810;SDS011;65470;47.324;8.548;2023-04-25T01:19:20;5.40;;;3.03;;
32810;SDS011;65470;47.324;8.548;2023-04-25T01:21:46;6.88;;;3.13;;
32810;SDS011;65470;47.324;8.548;2023-04-25T01:24:12;7.30;;;2.90;;
32810;SDS011;65470;47.324;8.548;2023-04-25T01:26:38;6.03;;;3.03;;
32810;SDS011;65470;47.324;8.548;2023-04-25T01:29:09;6.68;;;3.10;;
32810;SDS011;65470;47.324;8.548;2023-04-25T01:31:35;7.22;;;2.95;;
32810;SDS011;65470;47.324;8.548;2023-04-25T01:34:01;6.35;;;2.97;;
32810;SDS011;65470;47.324;8.548;2023-04-25T01:36:27;8.23;;;3.13;;
32810;SDS011;65470;47.324;8.548;2023-04-25T01:38:53;9.60;;;3.25;;
32810;SDS011;65470;47.324;8.548;2023-04-25T01:41:20;7.07;;;2.50;;
32810;SDS011;65470;47.324;8.548;2023-04-25T01:43:48;6.32;;;2.83;;
32810;SDS011;65470;47.324;8.548;2023-04-25T01:46:13;8.73;;;3.30;;
32810;SDS011;65470;47.324;8.548;2023-04-25T01:48:39;6.78;;;3.33;;
32810;SDS011;65470;47.324;8.548;2023-04-25T01:51:05;7.20;;;2.90;;
32810;SDS011;65470;47.324;8.548;2023-04-25T01:53:30;7.40;;;3.25;;
32810;SDS011;65470;47.324;8.548;2023-04-25T01:55:57;7.18;;;3.40;;
32810;SDS011;65470;47.324;8.548;2023-04-25T01:58:22;5.72;;;2.75;;
32810;SDS011;65470;47.324;8.548;2023-04-25T02:04:10;7.50;;;3.20;;
32810;SDS011;65470;47.324;8.548;2023-04-25T02:06:35;9.85;;;3.40;;
32810;SDS011;65470;47.324;8.548;2023-04-25T02:09:01;7.82;;;3.47;;
32810;SDS011;65470;47.324;8.548;2023-04-25T02:11:27;4.18;;;2.90;;
32810;SDS011;65470;47.324;8.548;2023-04-25T02:13:52;4.05;;;2.58;;
32810;SDS011;65470;47.324;8.548;2023-04-25T02:16:18;14.18;;;3.15;;
32810;SDS011;65470;47.324;8.548;2023-04-25T02:18:44;5.68;;;3.30;;
32810;SDS011;65470;47.324;8.548;2023-04-25T02:21:09;7.40;;;2.92;;
32810;SDS011;65470;47.324;8.548;2023-04-25T02:23:36;6.50;;;2.95;;
32810;SDS011;65470;47.324;8.548;2023-04-25T02:26:02;5.30;;;2.85;;
32810;SDS011;65470;47.324;8.548;2023-04-25T02:28:27;5.50;;;2.78;;
32810;SDS011;65470;47.324;8.548;2023-04-25T02:30:53;9.15;;;3.28;;
32810;SDS011;65470;47.324;8.548;2023-04-25T02:33:19;6.13;;;2.85;;
32810;SDS011;65470;47.324;8.548;2023-04-25T02:35:45;7.97;;;2.83;;
32810;SDS011;65470;47.324;8.548;2023-04-25T02:38:11;7.43;;;2.88;;
32810;SDS011;65470;47.324;8.548;2023-04-25T02:40:37;12.55;;;3.33;;
32810;SDS011;65470;47.324;8.548;2023-04-25T02:43:02;6.75;;;3.13;;
32810;SDS011;65470;47.324;8.548;2023-04-25T02:45:28;6.85;;;2.75;;
32810;SDS011;65470;47.324;8.548;2023-04-25T02:47:54;5.68;;;3.10;;
32810;SDS011;65470;47.324;8.548;2023-04-25T02:50:19;7.55;;;2.92;;
32810;SDS011;65470;47.324;8.548;2023-04-25T02:52:45;5.93;;;3.10;;
32810;SDS011;65470;47.324;8.548;2023-04-25T02:55:12;5.90;;;3.15;;
32810;SDS011;65470;47.324;8.548;2023-04-25T02:57:38;7.75;;;3.28;;
32810;SDS011;65470;47.324;8.548;2023-04-25T03:00:04;8.02;;;2.92;;
32810;SDS011;65470;47.324;8.548;2023-04-25T03:02:30;6.15;;;2.85;;
32810;SDS011;65470;47.324;8.548;2023-04-25T03:04:56;10.00;;;3.03;;
32810;SDS011;65470;47.324;8.548;2023-04-25T03:07:21;6.53;;;3.05;;
32810;SDS011;65470;47.324;8.548;2023-04-25T03:09:47;6.03;;;2.97;;
32810;SDS011;65470;47.324;8.548;2023-04-25T03:12:13;10.88;;;2.83;;
32810;SDS011;65470;47.324;8.548;2023-04-25T03:14:38;9.32;;;3.47;;
32810;SDS011;65470;47.324;8.548;2023-04-25T03:17:04;8.88;;;3.00;;
32810;SDS011;65470;47.324;8.548;2023-04-25T03:19:30;5.85;;;3.00;;
32810;SDS011;65470;47.324;8.548;2023-04-25T03:21:55;4.25;;;3.22;;
32810;SDS011;65470;47.324;8.548;2023-04-25T03:24:21;8.43;;;3.35;;
32810;SDS011;65470;47.324;8.548;2023-04-25T03:26:46;6.57;;;3.30;;
32810;SDS011;65470;47.324;8.548;2023-04-25T03:29:12;4.68;;;2.88;;
32810;SDS011;65470;47.324;8.548;2023-04-25T03:31:38;5.65;;;3.15;;
32810;SDS011;65470;47.324;8.548;2023-04-25T03:34:03;9.13;;;3.17;;
32810;SDS011;65470;47.324;8.548;2023-04-25T03:36:29;8.60;;;2.83;;
32810;SDS011;65470;47.324;8.548;2023-04-25T03:38:55;5.70;;;2.90;;
32810;SDS011;65470;47.324;8.548;2023-04-25T03:41:21;6.20;;;2.72;;
32810;SDS011;65470;47.324;8.548;2023-04-25T03:43:46;5.10;;;2.42;;
32810;SDS011;65470;47.324;8.548;2023-04-25T03:46:12;12.55;;;3.60;;
32810;SDS011;65470;47.324;8.548;2023-04-25T03:48:37;7.35;;;3.70;;
32810;SDS011;65470;47.324;8.548;2023-04-25T03:51:03;7.82;;;3.00;;
32810;SDS011;65470;47.324;8.548;2023-04-25T03:53:29;7.47;;;3.55;;
32810;SDS011;65470;47.324;8.548;2023-04-25T03:55:54;6.75;;;3.70;;
32810;SDS011;65470;47.324;8.548;2023-04-25T03:58:20;7.45;;;3.30;;
32810;SDS011;65470;47.324;8.548;2023-04-25T04:00:48;7.55;;;3.53;;
32810;SDS011;65470;47.324;8.548;2023-04-25T04:03:13;3.58;;;2.92;;
32810;SDS011;65470;47.324;8.548;2023-04-25T04:05:39;5.25;;;3.08;;
32810;SDS011;65470;47.324;8.548;2023-04-25T04:08:05;5.25;;;2.97;;
32810;SDS011;65470;47.324;8.548;2023-04-25T04:10:31;7.88;;;3.17;;
32810;SDS011;65470;47.324;8.548;2023-04-25T04:12:57;8.98;;;2.92;;
32810;SDS011;65470;47.324;8.548;2023-04-25T04:15:22;6.97;;;2.95;;
32810;SDS011;65470;47.324;8.548;2023-04-25T04:17:48;14.98;;;3.50;;
32810;SDS011;65470;47.324;8.548;2023-04-25T04:20:14;6.60;;;2.78;;
32810;SDS011;65470;47.324;8.548;2023-04-25T04:22:39;7.97;;;3.50;;
32810;SDS011;65470;47.324;8.548;2023-04-25T04:25:05;9.02;;;3.22;;
32810;SDS011;65470;47.324;8.548;2023-04-25T04:27:31;7.63;;;2.83;;
32810;SDS011;65470;47.324;8.548;2023-04-25T04:29:57;6.85;;;2.67;;
32810;SDS011;65470;47.324;8.548;2023-04-25T04:32:23;8.48;;;3.28;;
32810;SDS011;65470;47.324;8.548;2023-04-25T04:34:49;6.15;;;3.10;;
32810;SDS011;65470;47.324;8.548;2023-04-25T04:37:14;8.05;;;2.85;;
32810;SDS011;65470;47.324;8.548;2023-04-25T04:39:40;8.00;;;3.25;;
32810;SDS011;65470;47.324;8.548;2023-04-25T04:42:06;5.18;;;2.90;;
32810;SDS011;65470;47.324;8.548;2023-04-25T04:44:33;9.00;;;3.50;;
32810;SDS011;65470;47.324;8.548;2023-04-25T04:46:59;10.85;;;3.70;;
32810;SDS011;65470;47.324;8.548;2023-04-25T04:49:25;6.43;;;3.08;;
32810;SDS011;65470;47.324;8.548;2023-04-25T04:51:51;7.63;;;3.30;;
32810;SDS011;65470;47.324;8.548;2023-04-25T04:54:17;11.80;;;4.03;;
32810;SDS011;65470;47.324;8.548;2023-04-25T04:56:42;9.38;;;3.40;;
32810;SDS011;65470;47.324;8.548;2023-04-25T04:59:08;8.40;;;3.53;;
32810;SDS011;65470;47.324;8.548;2023-04-25T05:01:34;9.80;;;3.75;;
32810;SDS011;65470;47.324;8.548;2023-04-25T05:04:00;10.68;;;3.50;;
32810;SDS011;65470;47.324;8.548;2023-04-25T05:06:27;8.07;;;3.05;;
32810;SDS011;65470;47.324;8.548;2023-04-25T05:08:56;4.38;;;2.47;;
32810;SDS011;65470;47.324;8.548;2023-04-25T05:11:23;4.07;;;2.63;;
32810;SDS011;65470;47.324;8.548;2023-04-25T05:13:52;8.13;;;2.88;;
32810;SDS011;65470;47.324;8.548;2023-04-25T05:16:17;12.35;;;3.00;;
32810;SDS011;65470;47.324;8.548;2023-04-25T05:18:43;9.70;;;2.83;;
32810;SDS011;65470;47.324;8.548;2023-04-25T05:21:09;4.13;;;2.35;;
32810;SDS011;65470;47.324;8.548;2023-04-25T05:23:34;7.20;;;2.65;;
32810;SDS011;65470;47.324;8.548;2023-04-25T05:26:00;6.65;;;2.28;;
32810;SDS011;65470;47.324;8.548;2023-04-25T05:28:26;11.93;;;2.80;;
32810;SDS011;65470;47.324;8.548;2023-04-25T05:30:51;6.65;;;2.92;;
32810;SDS011;65470;47.324;8.548;2023-04-25T05:33:17;5.72;;;2.40;;
32810;SDS011;65470;47.324;8.548;2023-04-25T05:35:43;4.38;;;2.20;;
32810;SDS011;65470;47.324;8.548;2023-04-25T05:38:09;4.70;;;2.08;;
32810;SDS011;65470;47.324;8.548;2023-04-25T05:40:35;7.00;;;2.88;;
32810;SDS011;65470;47.324;8.548;2023-04-25T05:43:01;5.20;;;2.47;;
32810;SDS011;65470;47.324;8.548;2023-04-25T05:45:27;14.57;;;3.10;;
32810;SDS011;65470;47.324;8.548;2023-04-25T05:47:52;5.10;;;2.10;;
32810;SDS011;65470;47.324;8.548;2023-04-25T05:50:18;5.07;;;2.08;;
32810;SDS011;65470;47.324;8.548;2023-04-25T05:52:43;6.38;;;2.42;;
32810;SDS011;65470;47.324;8.548;2023-04-25T05:55:09;8.23;;;3.13;;
32810;SDS011;65470;47.324;8.548;2023-04-25T05:57:35;4.18;;;2.55;;
32810;SDS011;65470;47.324;8.548;2023-04-25T06:00:00;3.45;;;1.95;;
32810;SDS011;65470;47.324;8.548;2023-04-25T06:02:26;4.15;;;2.10;;
32810;SDS011;65470;47.324;8.548;2023-04-25T06:04:52;4.38;;;2.28;;
32810;SDS011;65470;47.324;8.548;2023-04-25T06:07:18;3.22;;;1.95;;
32810;SDS011;65470;47.324;8.548;2023-04-25T06:09:45;5.15;;;1.98;;
32810;SDS011;65470;47.324;8.548;2023-04-25T06:12:10;12.15;;;2.78;;
32810;SDS011;65470;47.324;8.548;2023-04-25T06:14:36;5.07;;;2.13;;
32810;SDS011;65470;47.324;8.548;2023-04-25T06:17:02;5.65;;;2.20;;
32810;SDS011;65470;47.324;8.548;2023-04-25T06:19:33;4.03;;;2.28;;
32810;SDS011;65470;47.324;8.548;2023-04-25T06:21:59;6.25;;;2.47;;
32810;SDS011;65470;47.324;8.548;2023-04-25T06:24:25;3.92;;;2.20;;
32810;SDS011;65470;47.324;8.548;2023-04-25T06:26:50;5.47;;;2.55;;
32810;SDS011;65470;47.324;8.548;2023-04-25T06:29:16;9.10;;;2.63;;
32810;SDS011;65470;47.324;8.548;2023-04-25T06:31:42;4.50;;;2.22;;
32810;SDS011;65470;47.324;8.548;2023-04-25T06:34:07;8.82;;;3.03;;
32810;SDS011;65470;47.324;8.548;2023-04-25T06:36:33;7.65;;;4.40;;
32810;SDS011;65470;47.324;8.548;2023-04-25T06:38:58;11.90;;;2.90;;
32810;SDS011;65470;47.324;8.548;2023-04-25T06:41:24;5.25;;;3.10;;
32810;SDS011;65470;47.324;8.548;2023-04-25T06:43:50;5.05;;;3.03;;
32810;SDS011;65470;47.324;8.548;2023-04-25T06:46:15;4.32;;;2.70;;
32810;SDS011;65470;47.324;8.548;2023-04-25T06:48:41;7.47;;;3.05;;
32810;SDS011;65470;47.324;8.548;2023-04-25T06:51:07;3.15;;;2.45;;
32810;SDS011;65470;47.324;8.548;2023-04-25T06:53:32;3.55;;;2.38;;
32810;SDS011;65470;47.324;8.548;2023-04-25T06:55:58;4.18;;;1.85;;
32810;SDS011;65470;47.324;8.548;2023-04-25T06:58:24;4.72;;;2.20;;
32810;SDS011;65470;47.324;8.548;2023-04-25T07:00:51;4.43;;;2.58;;
32810;SDS011;65470;47.324;8.548;2023-04-25T07:03:16;3.67;;;2.03;;
32810;SDS011;65470;47.324;8.548;2023-04-25T07:05:42;3.22;;;2.20;;
32810;SDS011;65470;47.324;8.548;2023-04-25T07:08:08;3.47;;;2.13;;
32810;SDS011;65470;47.324;8.548;2023-04-25T07:10:33;3.92;;;1.95;;
32810;SDS011;65470;47.324;8.548;2023-04-25T07:12:59;2.22;;;1.63;;
32810;SDS011;65470;47.324;8.548;2023-04-25T07:15:25;3.97;;;1.65;;
32810;SDS011;65470;47.324;8.548;2023-04-25T07:17:50;3.03;;;1.63;;
32810;SDS011;65470;47.324;8.548;2023-04-25T07:20:16;4.35;;;1.65;;
32810;SDS011;65470;47.324;8.548;2023-04-25T07:22:42;3.17;;;2.20;;
32810;SDS011;65470;47.324;8.548;2023-04-25T07:25:08;4.53;;;1.90;;
32810;SDS011;65470;47.324;8.548;2023-04-25T07:27:34;4.10;;;1.83;;
32810;SDS011;65470;47.324;8.548;2023-04-25T07:29:59;3.65;;;2.17;;
32810;SDS011;65470;47.324;8.548;2023-04-25T07:32:25;3.42;;;2.30;;
32810;SDS011;65470;47.324;8.548;2023-04-25T07:34:51;5.28;;;2.50;;
32810;SDS011;65470;47.324;8.548;2023-04-25T07:37:17;4.32;;;2.22;;
32810;SDS011;65470;47.324;8.548;2023-04-25T07:39:43;2.50;;;1.80;;
32810;SDS011;65470;47.324;8.548;2023-04-25T07:42:11;3.40;;;1.80;;
32810;SDS011;65470;47.324;8.548;2023-04-25T07:44:36;2.25;;;1.80;;
32810;SDS011;65470;47.324;8.548;2023-04-25T07:47:08;4.43;;;2.08;;
32810;SDS011;65470;47.324;8.548;2023-04-25T07:49:37;5.78;;;2.25;;
32810;SDS011;65470;47.324;8.548;2023-04-25T07:52:04;1.73;;;1.35;;
32810;SDS011;65470;47.324;8.548;2023-04-25T07:54:34;5.22;;;3.42;;
32810;SDS011;65470;47.324;8.548;2023-04-25T07:57:00;2.72;;;1.50;;
32810;SDS011;65470;47.324;8.548;2023-04-25T07:59:27;2.55;;;1.90;;
32810;SDS011;65470;47.324;8.548;2023-04-25T08:01:53;3.25;;;1.83;;
32810;SDS011;65470;47.324;8.548;2023-04-25T08:04:18;2.58;;;1.80;;
32810;SDS011;65470;47.324;8.548;2023-04-25T08:06:44;2.20;;;1.40;;
32810;SDS011;65470;47.324;8.548;2023-04-25T08:09:16;2.63;;;2.17;;
32810;SDS011;65470;47.324;8.548;2023-04-25T08:11:42;4.18;;;2.28;;
32810;SDS011;65470;47.324;8.548;2023-04-25T08:14:08;2.95;;;1.95;;
32810;SDS011;65470;47.324;8.548;2023-04-25T08:16:33;2.67;;;1.85;;
32810;SDS011;65470;47.324;8.548;2023-04-25T08:18:59;2.00;;;1.77;;
32810;SDS011;65470;47.324;8.548;2023-04-25T08:21:25;4.03;;;1.95;;
32810;SDS011;65470;47.324;8.548;2023-04-25T08:23:52;2.85;;;1.75;;
32810;SDS011;65470;47.324;8.548;2023-04-25T08:26:19;6.15;;;1.80;;
32810;SDS011;65470;47.324;8.548;2023-04-25T08:28:45;3.75;;;2.15;;
32810;SDS011;65470;47.324;8.548;2023-04-25T08:31:14;2.40;;;2.08;;
32810;SDS011;65470;47.324;8.548;2023-04-25T08:33:40;2.17;;;1.80;;
32810;SDS011;65470;47.324;8.548;2023-04-25T08:36:05;2.30;;;1.80;;
32810;SDS011;65470;47.324;8.548;2023-04-25T08:38:31;3.90;;;1.95;;
32810;SDS011;65470;47.324;8.548;2023-04-25T08:40:57;2.30;;;1.75;;
32810;SDS011;65470;47.324;8.548;2023-04-25T08:43:25;3.22;;;2.00;;
32810;SDS011;65470;47.324;8.548;2023-04-25T08:45:53;3.13;;;2.00;;
32810;SDS011;65470;47.324;8.548;2023-04-25T08:48:23;4.03;;;1.95;;
32810;SDS011;65470;47.324;8.548;2023-04-25T08:50:52;3.08;;;1.88;;
32810;SDS011;65470;47.324;8.548;2023-04-25T08:53:21;4.57;;;2.00;;
32810;SDS011;65470;47.324;8.548;2023-04-25T08:55:50;4.40;;;1.65;;
32810;SDS011;65470;47.324;8.548;2023-04-25T08:58:18;3.20;;;2.22;;
32810;SDS011;65470;47.324;8.548;2023-04-25T09:00:45;2.50;;;2.03;;
32810;SDS011;65470;47.324;8.548;2023-04-25T09:03:12;3.13;;;2.10;;
32810;SDS011;65470;47.324;8.548;2023-04-25T09:05:38;2.45;;;1.75;;
32810;SDS011;65470;47.324;8.548;2023-04-25T09:08:05;3.28;;;2.22;;
32810;SDS011;65470;47.324;8.548;2023-04-25T09:10:31;6.20;;;2.92;;
32810;SDS011;65470;47.324;8.548;2023-04-25T09:13:10;2.58;;;1.85;;
32810;SDS011;65470;47.324;8.548;2023-04-25T09:16:13;3.53;;;2.08;;
32810;SDS011;65470;47.324;8.548;2023-04-25T09:18:32;5.28;;;2.20;;
32810;SDS011;65470;47.324;8.548;2023-04-25T09:21:09;2.92;;;2.15;;
32810;SDS011;65470;47.324;8.548;2023-04-25T09:23:46;2.45;;;1.85;;
32810;SDS011;65470;47.324;8.548;2023-04-25T09:26:16;3.83;;;2.17;;
32810;SDS011;65470;47.324;8.548;2023-04-25T09:28:43;3.88;;;2.40;;
32810;SDS011;65470;47.324;8.548;2023-04-25T09:31:10;3.20;;;2.30;;
32810;SDS011;65470;47.324;8.548;2023-04-25T09:33:36;6.88;;;2.42;;
32810;SDS011;65470;47.324;8.548;2023-04-25T09:36:03;3.90;;;2.50;;
32810;SDS011;65470;47.324;8.548;2023-04-25T09:38:32;4.93;;;2.80;;
32810;SDS011;65470;47.324;8.548;2023-04-25T09:41:09;2.40;;;2.20;;
32810;SDS011;65470;47.324;8.548;2023-04-25T09:43:35;6.43;;;2.85;;
32810;SDS011;65470;47.324;8.548;2023-04-25T09:46:01;3.42;;;2.08;;
32810;SDS011;65470;47.324;8.548;2023-04-25T09:48:27;4.53;;;3.08;;
32810;SDS011;65470;47.324;8.548;2023-04-25T09:53:30;4.53;;;2.53;;
32810;SDS011;65470;47.324;8.548;2023-04-25T09:55:57;4.55;;;3.80;;
32810;SDS011;65470;47.324;8.548;2023-04-25T09:58:25;2.97;;;1.75;;
32810;SDS011;65470;47.324;8.548;2023-04-25T10:00:54;2.30;;;1.58;;
32810;SDS011;65470;47.324;8.548;2023-04-25T10:03:26;2.20;;;1.65;;
32810;SDS011;65470;47.324;8.548;2023-04-25T10:05:52;1.70;;;1.60;;
32810;SDS011;65470;47.324;8.548;2023-04-25T10:08:19;1.50;;;1.40;;
32810;SDS011;65470;47.324;8.548;2023-04-25T10:10:45;2.08;;;1.65;;
32810;SDS011;65470;47.324;8.548;2023-04-25T10:13:13;4.43;;;3.20;;
32810;SDS011;65470;47.324;8.548;2023-04-25T10:15:40;1.50;;;1.35;;
32810;SDS011;65470;47.324;8.548;2023-04-25T10:18:07;2.55;;;1.25;;
32810;SDS011;65470;47.324;8.548;2023-04-25T10:20:33;2.88;;;1.52;;
32810;SDS011;65470;47.324;8.548;2023-04-25T10:23:03;2.30;;;1.40;;
32810;SDS011;65470;47.324;8.548;2023-04-25T10:25:36;3.63;;;1.45;;
32810;SDS011;65470;47.324;8.548;2023-04-25T10:28:03;2.08;;;1.60;;
32810;SDS011;65470;47.324;8.548;2023-04-25T10:30:28;2.25;;;1.60;;
32810;SDS011;65470;47.324;8.548;2023-04-25T10:32:55;1.48;;;1.33;;
32810;SDS011;65470;47.324;8.548;2023-04-25T10:35:25;2.22;;;1.50;;
32810;SDS011;65470;47.324;8.548;2023-04-25T10:40:33;2.40;;;1.90;;
32810;SDS011;65470;47.324;8.548;2023-04-25T10:45:56;2.05;;;1.65;;
32810;SDS011;65470;47.324;8.548;2023-04-25T10:48:25;1.45;;;1.35;;
32810;SDS011;65470;47.324;8.548;2023-04-25T10:51:10;1.80;;;1.70;;
32810;SDS011;65470;47.324;8.548;2023-04-25T10:53:36;1.58;;;1.40;;
32810;SDS011;65470;47.324;8.548;2023-04-25T10:56:09;2.33;;;1.42;;
32810;SDS011;65470;47.324;8.548;2023-04-25T10:58:44;2.25;;;1.60;;
32810;SDS011;65470;47.324;8.548;2023-04-25T11:01:11;3.70;;;1.27;;
32810;SDS011;65470;47.324;8.548;2023-04-25T11:03:41;1.25;;;1.15;;
32810;SDS011;65470;47.324;8.548;2023-04-25T11:06:22;2.25;;;1.23;;
32810;SDS011;65470;47.324;8.548;2023-04-25T11:08:52;1.10;;;1.00;;
32810;SDS011;65470;47.324;8.548;2023-04-25T11:11:17;1.83;;;1.05;;
32810;SDS011;65470;47.324;8.548;2023-04-25T11:13:44;2.35;;;1.33;;
32810;SDS011;65470;47.324;8.548;2023-04-25T11:16:13;1.63;;;1.27;;
32810;SDS011;65470;47.324;8.548;2023-04-25T11:18:40;1.40;;;1.20;;
32810;SDS011;65470;47.324;8.548;2023-04-25T11:21:06;2.17;;;1.63;;
32810;SDS011;65470;47.324;8.548;2023-04-25T11:23:32;2.90;;;1.10;;
32810;SDS011;65470;47.324;8.548;2023-04-25T11:25:58;1.17;;;1.08;;
32810;SDS011;65470;47.324;8.548;2023-04-25T11:28:26;1.48;;;1.30;;
32810;SDS011;65470;47.324;8.548;2023-04-25T11:30:51;1.80;;;1.00;;
32810;SDS011;65470;47.324;8.548;2023-04-25T11:33:17;2.05;;;1.17;;
32810;SDS011;65470;47.324;8.548;2023-04-25T11:35:48;1.88;;;1.20;;
32810;SDS011;65470;47.324;8.548;2023-04-25T11:38:13;7.47;;;1.30;;
32810;SDS011;65470;47.324;8.548;2023-04-25T11:40:39;1.90;;;1.20;;
32810;SDS011;65470;47.324;8.548;2023-04-25T11:43:05;2.20;;;1.20;;
32810;SDS011;65470;47.324;8.548;2023-04-25T11:45:32;1.58;;;1.20;;
32810;SDS011;65470;47.324;8.548;2023-04-25T11:47:57;2.05;;;1.42;;
32810;SDS011;65470;47.324;8.548;2023-04-25T11:50:23;1.10;;;0.95;;
32810;SDS011;65470;47.324;8.548;2023-04-25T11:52:49;2.10;;;1.30;;
32810;SDS011;65470;47.324;8.548;2023-04-25T11:55:18;1.70;;;1.00;;
32810;SDS011;65470;47.324;8.548;2023-04-25T11:57:45;2.58;;;1.50;;
32810;SDS011;65470;47.324;8.548;2023-04-25T12:00:15;1.13;;;0.93;;
32810;SDS011;65470;47.324;8.548;2023-04-25T12:02:51;2.88;;;1.00;;
32810;SDS011;65470;47.324;8.548;2023-04-25T12:05:18;1.08;;;0.98;;
32810;SDS011;65470;47.324;8.548;2023-04-25T12:07:45;1.42;;;1.20;;
32810;SDS011;65470;47.324;8.548;2023-04-25T12:10:12;1.67;;;1.15;;
32810;SDS011;65470;47.324;8.548;2023-04-25T12:12:41;1.13;;;0.90;;
32810;SDS011;65470;47.324;8.548;2023-04-25T12:17:44;4.25;;;1.10;;
32810;SDS011;65470;47.324;8.548;2023-04-25T12:20:15;2.33;;;1.23;;
32810;SDS011;65470;47.324;8.548;2023-04-25T12:22:42;2.55;;;1.10;;
32810;SDS011;65470;47.324;8.548;2023-04-25T12:25:10;3.92;;;1.33;;
32810;SDS011;65470;47.324;8.548;2023-04-25T12:27:37;5.47;;;1.77;;
32810;SDS011;65470;47.324;8.548;2023-04-25T12:30:03;4.07;;;1.65;;
32810;SDS011;65470;47.324;8.548;2023-04-25T12:32:29;1.90;;;1.33;;
32810;SDS011;65470;47.324;8.548;2023-04-25T12:34:55;1.48;;;1.38;;
32810;SDS011;65470;47.324;8.548;2023-04-25T12:37:21;1.88;;;1.58;;
32810;SDS011;65470;47.324;8.548;2023-04-25T12:39:47;1.38;;;1.10;;
32810;SDS011;65470;47.324;8.548;2023-04-25T12:42:12;1.45;;;1.10;;
32810;SDS011;65470;47.324;8.548;2023-04-25T12:44:38;3.70;;;1.35;;
32810;SDS011;65470;47.324;8.548;2023-04-25T12:47:03;1.90;;;1.42;;
32810;SDS011;65470;47.324;8.548;2023-04-25T12:49:30;3.47;;;1.27;;
32810;SDS011;65470;47.324;8.548;2023-04-25T12:51:56;1.90;;;1.30;;
32810;SDS011;65470;47.324;8.548;2023-04-25T12:54:22;2.35;;;1.30;;
32810;SDS011;65470;47.324;8.548;2023-04-25T12:56:47;1.77;;;1.52;;
32810;SDS011;65470;47.324;8.548;2023-04-25T12:59:13;1.77;;;1.35;;
32810;SDS011;65470;47.324;8.548;2023-04-25T13:01:39;1.60;;;1.27;;
32810;SDS011;65470;47.324;8.548;2023-04-25T13:04:04;2.40;;;1.50;;
32810;SDS011;65470;47.324;8.548;2023-04-25T13:06:30;1.60;;;1.35;;
32810;SDS011;65470;47.324;8.548;2023-04-25T13:08:56;1.65;;;1.20;;
32810;SDS011;65470;47.324;8.548;2023-04-25T13:11:21;2.08;;;1.27;;
32810;SDS011;65470;47.324;8.548;2023-04-25T13:13:47;1.90;;;1.45;;
32810;SDS011;65470;47.324;8.548;2023-04-25T13:16:13;1.85;;;1.17;;
32810;SDS011;65470;47.324;8.548;2023-04-25T13:18:39;1.30;;;1.20;;
32810;SDS011;65470;47.324;8.548;2023-04-25T13:21:05;1.52;;;1.42;;
32810;SDS011;65470;47.324;8.548;2023-04-25T13:23:31;1.80;;;1.70;;
32810;SDS011;65470;47.324;8.548;2023-04-25T13:25:56;1.35;;;1.25;;
32810;SDS011;65470;47.324;8.548;2023-04-25T13:28:23;2.40;;;1.30;;
32810;SDS011;65470;47.324;8.548;2023-04-25T13:30:49;1.30;;;1.20;;
32810;SDS011;65470;47.324;8.548;2023-04-25T13:33:15;1.38;;;1.20;;
32810;SDS011;65470;47.324;8.548;2023-04-25T13:35:40;2.38;;;1.50;;
32810;SDS011;65470;47.324;8.548;2023-04-25T13:38:07;1.30;;;1.10;;
32810;SDS011;65470;47.324;8.548;2023-04-25T13:40:33;1.63;;;1.30;;
32810;SDS011;65470;47.324;8.548;2023-04-25T13:43:00;1.88;;;1.50;;
32810;SDS011;65470;47.324;8.548;2023-04-25T13:45:26;1.38;;;1.27;;
32810;SDS011;65470;47.324;8.548;2023-04-25T13:47:52;4.18;;;1.73;;
32810;SDS011;65470;47.324;8.548;2023-04-25T13:50:18;1.67;;;1.33;;
32810;SDS011;65470;47.324;8.548;2023-04-25T13:52:43;2.20;;;1.73;;
32810;SDS011;65470;47.324;8.548;2023-04-25T13:55:10;2.67;;;1.55;;
32810;SDS011;65470;47.324;8.548;2023-04-25T13:57:36;1.30;;;1.10;;
32810;SDS011;65470;47.324;8.548;2023-04-25T14:00:03;1.70;;;1.30;;
32810;SDS011;65470;47.324;8.548;2023-04-25T14:02:34;1.67;;;1.42;;
32810;SDS011;65470;47.324;8.548;2023-04-25T14:05:00;2.05;;;1.45;;
32810;SDS011;65470;47.324;8.548;2023-04-25T14:07:26;4.43;;;1.38;;
32810;SDS011;65470;47.324;8.548;2023-04-25T14:09:52;3.20;;;1.38;;
32810;SDS011;65470;47.324;8.548;2023-04-25T14:12:17;2.50;;;1.40;;
32810;SDS011;65470;47.324;8.548;2023-04-25T14:14:43;2.67;;;1.52;;
32810;SDS011;65470;47.324;8.548;2023-04-25T14:17:08;2.65;;;1.20;;
32810;SDS011;65470;47.324;8.548;2023-04-25T14:19:34;1.48;;;1.15;;
32810;SDS011;65470;47.324;8.548;2023-04-25T14:22:00;3.38;;;1.58;;
32810;SDS011;65470;47.324;8.548;2023-04-25T14:24:26;1.90;;;1.70;;
32810;SDS011;65470;47.324;8.548;2023-04-25T14:26:51;1.52;;;1.42;;
32810;SDS011;65470;47.324;8.548;2023-04-25T14:29:17;2.50;;;1.52;;
32810;SDS011;65470;47.324;8.548;2023-04-25T14:31:43;4.90;;;1.50;;
32810;SDS011;65470;47.324;8.548;2023-04-25T14:34:09;6.05;;;3.47;;
32810;SDS011;65470;47.324;8.548;2023-04-25T14:36:36;3.20;;;1.85;;
32810;SDS011;65470;47.324;8.548;2023-04-25T14:39:02;4.57;;;1.90;;
32810;SDS011;65470;47.324;8.548;2023-04-25T14:41:29;1.60;;;1.50;;
32810;SDS011;65470;47.324;8.548;2023-04-25T14:43:55;2.42;;;1.88;;
32810;SDS011;65470;47.324;8.548;2023-04-25T14:46:21;4.63;;;1.63;;
32810;SDS011;65470;47.324;8.548;2023-04-25T14:48:48;4.85;;;1.75;;
32810;SDS011;65470;47.324;8.548;2023-04-25T14:51:14;3.83;;;2.00;;
32810;SDS011;65470;47.324;8.548;2023-04-25T14:53:40;3.40;;;2.08;;
32810;SDS011;65470;47.324;8.548;2023-04-25T14:56:06;2.75;;;1.85;;
32810;SDS011;65470;47.324;8.548;2023-04-25T14:58:33;4.35;;;1.95;;